Time,TemperatureF,DewpointF,PressureIn,WindDirection,WindDirectionDegrees,WindSpeedMPH,WindSpeedGustMPH,Humidity,HourlyPrecipIn,Conditions,Clouds,dailyrainin,SolarRadiationWatts/m^2,SoftwareType,DateUTC
2013-07-14 00:10:00,72.9,73.0,30.29,South,188,0.0,1.0,99,0.00,,,0.00,0,weatherlink.com 1.10,2013-07-14 04:10:00,
2013-07-14 00:25:00,73.1,73.0,30.29,South,188,1.0,3.0,99,0.00,,,0.00,0,weatherlink.com 1.10,2013-07-14 04:25:00,
2013-07-14 00:40:00,72.9,73.0,30.29,South,188,0.0,2.0,99,0.00,,,0.00,0,weatherlink.com 1.10,2013-07-14 04:40:00,
2013-07-14 00:55:00,72.9,73.0,30.29,South,188,0.0,0.0,99,0.00,,,0.00,0,weatherlink.com 1.10,2013-07-14 04:55:00,
2013-07-14 01:10:00,72.8,73.0,30.29,South,188,0.0,0.0,99,0.00,,,0.00,0,weatherlink.com 1.10,2013-07-14 05:10:00,
2013-07-14 01:25:00,72.7,72.0,30.29,South,188,0.0,1.0,99,0.00,,,0.00,0,weatherlink.com 1.10,2013-07-14 05:25:00,
2013-07-14 01:40:00,72.6,72.0,30.29,South,188,0.0,0.0,99,0.00,,,0.00,0,weatherlink.com 1.10,2013-07-14 05:40:00,
2013-07-14 01:55:00,72.6,72.0,30.28,South,188,0.0,1.0,99,0.00,,,0.00,0,weatherlink.com 1.10,2013-07-14 05:55:00,
2013-07-14 02:10:00,72.7,72.0,30.28,South,188,0.0,0.0,99,0.00,,,0.00,0,weatherlink.com 1.10,2013-07-14 06:10:00,
2013-07-14 02:25:00,72.7,72.0,30.28,South,188,0.0,1.0,99,0.00,,,0.00,0,weatherlink.com 1.10,2013-07-14 06:25:00,
2013-07-14 02:40:00,72.6,72.0,30.27,South,188,0.0,1.0,99,0.00,,,0.00,0,weatherlink.com 1.10,2013-07-14 06:40:00,
2013-07-14 02:55:00,72.7,72.0,30.28,South,188,0.0,0.0,99,0.00,,,0.00,0,weatherlink.com 1.10,2013-07-14 06:55:00,
2013-07-14 03:10:00,72.7,72.0,30.28,South,188,0.0,1.0,99,0.00,,,0.00,0,weatherlink.com 1.10,2013-07-14 07:10:00,
2013-07-14 03:25:00,72.6,72.0,30.28,South,188,0.0,1.0,99,0.00,,,0.00,0,weatherlink.com 1.10,2013-07-14 07:25:00,
2013-07-14 03:40:00,72.5,72.0,30.27,SW,215,0.0,6.0,99,0.00,,,0.00,0,weatherlink.com 1.10,2013-07-14 07:40:00,
2013-07-14 03:55:00,72.6,72.0,30.27,SW,215,0.0,0.0,99,0.00,,,0.00,0,weatherlink.com 1.10,2013-07-14 07:55:00,
2013-07-14 04:10:00,72.7,72.0,30.27,SW,215,4.0,4.0,99,0.00,,,0.00,0,weatherlink.com 1.10,2013-07-14 08:10:00,
2013-07-14 04:25:00,72.6,72.0,30.27,SW,215,0.0,3.0,99,0.00,,,0.00,0,weatherlink.com 1.10,2013-07-14 08:25:00,
2013-07-14 04:40:00,72.6,72.0,30.27,SW,215,0.0,2.0,99,0.00,,,0.00,0,weatherlink.com 1.10,2013-07-14 08:40:00,
2013-07-14 04:55:00,72.6,72.0,30.27,SW,215,0.0,1.0,99,0.00,,,0.00,0,weatherlink.com 1.10,2013-07-14 08:55:00,
2013-07-14 05:10:00,72.7,72.0,30.27,SW,215,0.0,0.0,99,0.00,,,0.00,0,weatherlink.com 1.10,2013-07-14 09:10:00,
2013-07-14 05:25:00,72.8,73.0,30.27,SW,215,0.0,0.0,99,0.00,,,0.00,0,weatherlink.com 1.10,2013-07-14 09:25:00,
2013-07-14 05:40:00,72.8,73.0,30.27,SW,215,0.0,0.0,99,0.00,,,0.00,5,weatherlink.com 1.10,2013-07-14 09:40:00,
2013-07-14 05:55:00,72.9,73.0,30.28,SW,215,0.0,1.0,99,0.00,,,0.00,7,weatherlink.com 1.10,2013-07-14 09:55:00,
2013-07-14 06:11:00,73.0,73.0,30.28,SW,215,0.0,0.0,99,0.00,,,0.00,14,weatherlink.com 1.10,2013-07-14 10:11:00,
2013-07-14 06:25:00,73.1,73.0,30.28,SW,215,0.0,0.0,99,0.00,,,0.00,18,weatherlink.com 1.10,2013-07-14 10:25:00,
2013-07-14 06:41:00,73.1,73.0,30.29,SW,215,0.0,2.0,99,0.00,,,0.00,46,weatherlink.com 1.10,2013-07-14 10:41:00,
2013-07-14 06:56:00,73.1,73.0,30.29,WSW,257,0.0,2.0,99,0.00,,,0.00,40,weatherlink.com 1.10,2013-07-14 10:56:00,
2013-07-14 07:10:00,73.2,73.0,30.30,WSW,257,0.0,3.0,99,0.00,,,0.00,67,weatherlink.com 1.10,2013-07-14 11:10:00,
2013-07-14 07:27:00,73.6,73.0,30.30,WSW,257,0.0,1.0,99,0.00,,,0.00,113,weatherlink.com 1.10,2013-07-14 11:27:00,
2013-07-14 07:42:00,74.2,74.0,30.30,WSW,257,0.0,2.0,99,0.00,,,0.00,128,weatherlink.com 1.10,2013-07-14 11:42:00,
2013-07-14 07:56:00,74.7,74.0,30.30,WSW,257,0.0,1.0,99,0.00,,,0.00,125,weatherlink.com 1.10,2013-07-14 11:56:00,
2013-07-14 08:12:00,75.3,75.0,30.31,WSW,257,0.0,1.0,98,0.00,,,0.00,246,weatherlink.com 1.10,2013-07-14 12:12:00,
2013-07-14 08:26:00,76.0,75.0,30.31,WSW,257,0.0,1.0,96,0.00,,,0.00,176,weatherlink.com 1.10,2013-07-14 12:26:00,
2013-07-14 08:42:00,76.2,75.0,30.31,NNW,338,0.0,1.0,95,0.00,,,0.00,125,weatherlink.com 1.10,2013-07-14 12:42:00,
2013-07-14 08:57:00,76.4,75.0,30.31,NNW,338,0.0,1.0,94,0.00,,,0.00,142,weatherlink.com 1.10,2013-07-14 12:57:00,
2013-07-14 09:12:00,77.0,75.0,30.30,NNW,338,0.0,1.0,94,0.00,,,0.00,468,weatherlink.com 1.10,2013-07-14 13:12:00,
2013-07-14 09:27:00,78.0,76.0,30.29,WSW,250,2.0,3.0,92,0.00,,,0.00,392,weatherlink.com 1.10,2013-07-14 13:27:00,
2013-07-14 09:43:00,78.8,75.0,30.29,West,266,0.0,4.0,89,0.00,,,0.00,304,weatherlink.com 1.10,2013-07-14 13:43:00,
2013-07-14 09:58:00,79.7,76.0,30.29,WNW,292,0.0,3.0,87,0.00,,,0.00,313,weatherlink.com 1.10,2013-07-14 13:58:00,
2013-07-14 10:12:00,79.5,75.0,30.29,NNW,348,0.0,5.0,87,0.00,,,0.00,605,weatherlink.com 1.10,2013-07-14 14:12:00,
2013-07-14 10:28:00,80.9,76.0,30.29,SSW,192,3.0,6.0,85,0.00,,,0.00,439,weatherlink.com 1.10,2013-07-14 14:28:00,
2013-07-14 10:44:00,80.5,76.0,30.29,SSW,192,0.0,1.0,85,0.00,,,0.00,274,weatherlink.com 1.10,2013-07-14 14:44:00,
2013-07-14 10:59:00,81.4,75.0,30.29,West,265,0.0,4.0,82,0.00,,,0.00,257,weatherlink.com 1.10,2013-07-14 14:59:00,
2013-07-14 11:14:00,81.3,76.0,30.29,North,5,0.0,4.0,84,0.00,,,0.00,162,weatherlink.com 1.10,2013-07-14 15:14:00,
2013-07-14 11:29:00,81.3,77.0,30.29,NNE,26,0.0,1.0,86,0.00,,,0.00,1037,weatherlink.com 1.10,2013-07-14 15:29:00,
2013-07-14 11:44:00,83.1,77.0,30.28,NE,34,0.0,2.0,82,0.00,,,0.00,1078,weatherlink.com 1.10,2013-07-14 15:44:00,
2013-07-14 11:58:00,84.5,77.0,30.27,NW,305,0.0,8.0,79,0.00,,,0.00,241,weatherlink.com 1.10,2013-07-14 15:58:00,
2013-07-14 12:15:00,82.4,77.0,30.27,ENE,57,0.0,2.0,84,0.00,,,0.00,265,weatherlink.com 1.10,2013-07-14 16:15:00,
2013-07-14 12:29:00,82.7,78.0,30.27,SSE,165,0.0,2.0,84,0.00,,,0.00,213,weatherlink.com 1.10,2013-07-14 16:29:00,
2013-07-14 12:45:00,82.0,77.0,30.27,SSE,154,0.0,3.0,85,0.00,,,0.00,165,weatherlink.com 1.10,2013-07-14 16:45:00,
2013-07-14 13:00:00,81.4,77.0,30.26,ESE,123,1.0,4.0,86,0.00,,,0.00,343,weatherlink.com 1.10,2013-07-14 17:00:00,
2013-07-14 13:15:00,81.9,77.0,30.26,ESE,115,0.0,4.0,85,0.00,,,0.00,262,weatherlink.com 1.10,2013-07-14 17:15:00,
2013-07-14 13:30:00,83.3,78.0,30.26,SW,216,2.0,7.0,83,0.00,,,0.00,186,weatherlink.com 1.10,2013-07-14 17:30:00,
2013-07-14 13:44:00,83.3,78.0,30.26,SSW,200,7.0,9.0,83,0.00,,,0.00,1042,weatherlink.com 1.10,2013-07-14 17:44:00,
2013-07-14 14:00:00,86.2,79.0,30.25,SSE,163,2.0,4.0,80,0.00,,,0.00,1092,weatherlink.com 1.10,2013-07-14 18:00:00,
2013-07-14 14:16:00,86.1,79.0,30.25,SSW,196,1.0,7.0,80,0.00,,,0.00,960,weatherlink.com 1.10,2013-07-14 18:16:00,
2013-07-14 14:31:00,86.6,79.0,30.24,South,171,0.0,7.0,78,0.00,,,0.00,949,weatherlink.com 1.10,2013-07-14 18:31:00,
2013-07-14 14:45:00,86.5,79.0,30.24,West,278,2.0,8.0,78,0.00,,,0.00,984,weatherlink.com 1.10,2013-07-14 18:45:00,
2013-07-14 15:01:00,86.8,79.0,30.23,South,190,4.0,10.0,78,0.00,,,0.00,853,weatherlink.com 1.10,2013-07-14 19:01:00,
2013-07-14 15:15:00,86.9,79.0,30.23,SW,225,5.0,7.0,77,0.00,,,0.00,847,weatherlink.com 1.10,2013-07-14 19:15:00,
2013-07-14 15:30:00,86.8,78.0,30.23,South,176,1.0,12.0,76,0.00,,,0.00,780,weatherlink.com 1.10,2013-07-14 19:30:00,
2013-07-14 15:46:00,86.2,78.0,30.22,SSW,200,2.0,10.0,77,0.00,,,0.00,693,weatherlink.com 1.10,2013-07-14 19:46:00,
2013-07-14 16:02:00,86.8,78.0,30.22,WSW,258,0.0,7.0,76,0.00,,,0.00,782,weatherlink.com 1.10,2013-07-14 20:02:00,
2013-07-14 16:16:00,85.5,78.0,30.22,West,281,5.0,8.0,77,0.00,,,0.00,747,weatherlink.com 1.10,2013-07-14 20:16:00,
2013-07-14 16:32:00,85.9,78.0,30.22,WNW,288,5.0,9.0,77,0.00,,,0.00,638,weatherlink.com 1.10,2013-07-14 20:32:00,
2013-07-14 16:46:00,86.7,78.0,30.22,West,274,3.0,9.0,75,0.00,,,0.00,575,weatherlink.com 1.10,2013-07-14 20:46:00,
2013-07-14 17:02:00,86.4,78.0,30.22,West,269,0.0,8.0,75,0.00,,,0.00,533,weatherlink.com 1.10,2013-07-14 21:02:00,
2013-07-14 17:16:00,86.3,77.0,30.22,SW,220,0.0,3.0,74,0.00,,,0.00,476,weatherlink.com 1.10,2013-07-14 21:16:00,
2013-07-14 17:32:00,86.3,77.0,30.21,SW,217,3.0,7.0,73,0.00,,,0.00,276,weatherlink.com 1.10,2013-07-14 21:32:00,
2013-07-14 17:48:00,85.2,78.0,30.21,South,186,0.0,4.0,78,0.00,,,0.00,220,weatherlink.com 1.10,2013-07-14 21:48:00,
2013-07-14 18:03:00,83.9,78.0,30.21,South,186,0.0,2.0,82,0.00,,,0.00,62,weatherlink.com 1.10,2013-07-14 22:03:00,
2013-07-14 18:33:00,80.2,76.0,30.22,NNE,29,0.0,3.0,87,0.00,,,0.00,25,weatherlink.com 1.10,2013-07-14 22:33:00,
2013-07-14 18:47:00,79.2,76.0,30.22,NNE,20,0.0,1.0,90,0.01,,,0.01,19,weatherlink.com 1.10,2013-07-14 22:47:00,
2013-07-14 19:03:00,78.0,75.0,30.23,North,10,6.0,12.0,91,0.13,,,0.13,42,weatherlink.com 1.10,2013-07-14 23:03:00,
2013-07-14 19:18:00,76.7,75.0,30.21,SSW,203,0.0,6.0,95,0.42,,,0.42,130,weatherlink.com 1.10,2013-07-14 23:18:00,
2013-07-14 19:34:00,77.2,76.0,30.21,SSW,207,0.0,1.0,96,0.41,,,0.42,63,weatherlink.com 1.10,2013-07-14 23:34:00,
2013-07-14 19:49:00,77.4,76.0,30.21,SSW,207,0.0,0.0,96,0.40,,,0.42,37,weatherlink.com 1.10,2013-07-14 23:49:00,
2013-07-14 20:04:00,77.5,77.0,30.21,SSW,207,0.0,0.0,97,0.16,,,0.42,21,weatherlink.com 1.10,2013-07-15 00:04:00,
2013-07-14 20:18:00,77.4,77.0,30.21,SSW,207,0.0,0.0,97,0.00,,,0.42,7,weatherlink.com 1.10,2013-07-15 00:18:00,
2013-07-14 20:35:00,77.2,76.0,30.21,SSW,207,0.0,0.0,97,0.00,,,0.42,0,weatherlink.com 1.10,2013-07-15 00:35:00,
2013-07-14 20:49:00,76.9,76.0,30.22,SSW,207,0.0,0.0,97,0.00,,,0.42,0,weatherlink.com 1.10,2013-07-15 00:49:00,
2013-07-14 21:04:00,76.7,76.0,30.21,SSW,207,0.0,0.0,98,0.00,,,0.42,0,weatherlink.com 1.10,2013-07-15 01:04:00,
2013-07-14 21:19:00,76.0,75.0,30.22,SW,226,0.0,3.0,97,0.00,,,0.42,0,weatherlink.com 1.10,2013-07-15 01:19:00,
2013-07-14 21:35:00,76.2,75.0,30.22,WSW,257,0.0,1.0,97,0.00,,,0.42,0,weatherlink.com 1.10,2013-07-15 01:35:00,
2013-07-14 21:50:00,76.1,75.0,30.22,WSW,257,0.0,0.0,97,0.00,,,0.42,0,weatherlink.com 1.10,2013-07-15 01:50:00,
2013-07-14 22:04:00,75.7,75.0,30.22,WSW,257,0.0,1.0,97,0.00,,,0.42,0,weatherlink.com 1.10,2013-07-15 02:04:00,
2013-07-14 22:20:00,75.6,75.0,30.22,WSW,257,0.0,1.0,97,0.00,,,0.42,0,weatherlink.com 1.10,2013-07-15 02:20:00,
2013-07-14 22:34:00,75.3,74.0,30.22,WSW,257,0.0,0.0,97,0.00,,,0.42,0,weatherlink.com 1.10,2013-07-15 02:34:00,
2013-07-14 22:50:00,75.1,74.0,30.22,WSW,257,0.0,0.0,97,0.00,,,0.42,0,weatherlink.com 1.10,2013-07-15 02:50:00,
2013-07-14 23:05:00,75.1,75.0,30.21,WSW,257,0.0,0.0,98,0.00,,,0.42,0,weatherlink.com 1.10,2013-07-15 03:05:00,
2013-07-14 23:20:00,74.6,74.0,30.21,WSW,257,0.0,0.0,97,0.00,,,0.42,0,weatherlink.com 1.10,2013-07-15 03:20:00,
2013-07-14 23:36:00,74.4,74.0,30.21,WSW,257,0.0,0.0,98,0.00,,,0.42,0,weatherlink.com 1.10,2013-07-15 03:36:00,
2013-07-14 23:51:00,74.2,74.0,30.21,WSW,257,0.0,0.0,98,0.00,,,0.42,0,weatherlink.com 1.10,2013-07-15 03:51:00,